Date,TemperatureHighF,TemperatureAvgF,TemperatureLowF,DewpointHighF,DewpointAvgF,DewpointLowF,HumidityHigh,HumidityAvg,HumidityLow,PressureMaxIn,PressureMinIn,WindSpeedMaxMPH,WindSpeedAvgMPH,GustSpeedMaxMPH,PrecipitationSumIn
2013-1-1,40.1,36.7,28.0,31.7,25.7,15.5,75,64,53,29.98,29.80,15,2,15,0.00
2013-1-2,31.6,28.2,23.1,20.2,16.6,12.3,68,61,57,30.15,29.97,16,2,16,0.00
2013-1-3,31.2,26.9,21.1,20.8,18.1,14.8,78,69,56,30.19,30.03,10,1,10,0.00
2013-1-4,39.9,34.1,30.0,26.0,23.7,20.2,75,66,54,30.06,29.91,12,1,12,0.00
2013-1-5,44.1,34.8,26.9,29.0,24.8,21.5,87,67,51,30.25,29.96,15,1,15,0.00
2013-1-6,45.6,37.9,29.0,35.3,30.7,25.4,91,75,63,30.21,29.95,6,0,7,0.00
2013-1-7,45.1,36.3,26.9,34.0,28.2,22.4,86,73,49,30.39,30.02,11,1,11,0.00
2013-1-8,50.7,40.0,28.1,37.2,32.4,24.4,90,75,53,30.42,30.32,10,1,10,0.00
2013-1-9,49.0,40.2,26.9,41.9,34.0,24.9,96,79,61,30.37,30.08,12,1,12,0.00
2013-1-10,47.7,42.4,35.0,34.9,29.5,26.7,74,61,46,30.53,30.19,13,2,13,0.00
2013-1-11,45.4,37.6,28.6,44.3,33.3,25.3,96,85,71,30.52,30.15,5,0,5,0.30
2013-1-12,47.9,43.2,41.1,47.1,42.5,40.3,98,98,96,30.17,30.05,5,0,9,0.05
2013-1-13,49.2,44.8,40.7,48.6,44.1,39.9,98,97,94,30.17,30.01,6,0,6,0.00
2013-1-14,56.4,48.9,36.6,54.3,45.4,32.7,99,88,65,30.28,29.91,8,1,9,0.03
2013-1-15,38.7,37.0,34.6,33.3,31.0,28.4,93,79,68,30.33,30.20,9,1,9,0.10
2013-1-16,36.8,35.4,33.6,35.8,34.0,30.2,97,95,78,30.22,29.77,7,0,7,0.65
2013-1-17,43.9,38.8,34.1,35.6,32.2,24.2,96,78,61,30.09,29.89,11,1,11,0.00
2013-1-18,34.1,27.4,23.0,24.8,13.8,7.6,69,57,41,30.49,30.00,13,2,13,0.00
2013-1-19,52.1,39.9,24.3,36.9,28.8,14.2,76,65,48,30.42,29.92,14,2,14,0.00
2013-1-20,55.4,43.6,31.0,35.0,28.9,14.6,74,57,37,30.01,29.66,16,2,17,0.00
2013-1-21,33.0,29.4,25.4,25.4,17.1,9.9,86,60,45,30.10,29.80,13,1,13,0.00
2013-1-22,28.6,21.6,14.4,21.4,6.2,-3.6,74,51,39,30.16,29.79,21,4,21,0.00
2013-1-23,20.6,15.9,12.8,2.3,-0.3,-3.7,58,48,40,30.23,30.14,19,3,19,0.00
2013-1-24,23.4,17.6,11.3,6.5,3.0,-0.8,73,53,37,30.34,30.12,19,2,19,0.00
2013-1-25,23.8,20.4,15.3,18.2,10.5,5.0,88,66,51,30.39,30.04,9,1,9,0.01
2013-1-26,26.6,21.7,17.4,18.1,11.2,5.4,88,65,48,30.34,30.02,14,2,14,0.01
2013-1-27,32.9,24.5,18.3,15.7,12.3,8.1,74,60,36,30.50,30.34,11,1,11,0.00
2013-1-28,35.3,29.2,19.3,34.0,25.3,13.2,95,86,63,30.48,29.99,8,0,8,0.17
2013-1-29,41.9,37.5,34.6,38.2,35.6,33.3,96,93,85,30.16,29.98,5,0,5,0.02
2013-1-30,58.0,51.1,38.5,56.3,50.2,37.5,98,97,92,30.10,29.42,16,2,16,0.00
2013-1-31,58.2,46.0,30.1,57.4,34.8,14.5,97,67,40,29.75,29.06,23,4,23,0.39
2013-2-1,31.9,29.0,25.2,17.1,12.3,5.2,58,50,37,30.20,29.74,21,3,21,0.00
2013-2-2,31.4,26.2,20.8,22.1,13.0,8.4,88,58,38,30.29,30.06,20,2,20,0.00
2013-2-3,30.5,27.0,24.0,22.5,20.3,15.2,90,76,55,30.06,29.76,7,1,7,0.00
2013-2-4,33.5,27.7,24.4,22.6,14.9,11.7,82,59,44,29.97,29.78,18,2,18,0.00
2013-2-5,30.6,28.9,26.9,28.3,24.7,13.8,91,84,56,29.98,29.90,7,0,7,0.01
2013-2-6,39.9,33.3,29.4,30.0,24.5,12.1,93,72,47,30.35,29.91,14,2,14,0.00
2013-2-7,31.2,28.1,24.9,23.8,13.4,5.5,75,54,39,30.51,30.34,10,1,10,0.00
2013-2-8,34.9,32.1,25.6,32.4,29.4,23.8,97,90,73,30.35,29.56,16,2,16,1.62
2013-2-9,28.7,25.0,19.7,25.1,20.5,11.3,96,83,66,30.30,29.67,17,3,17,0.21
2013-2-10,34.6,22.2,9.4,24.3,14.8,5.0,92,74,37,30.47,30.30,11,0,13,0.02
2013-2-11,45.6,36.9,21.5,45.1,36.0,19.5,98,96,92,30.34,29.65,5,0,11,0.43
2013-2-12,43.9,38.7,33.7,38.3,31.8,27.1,98,77,60,29.95,29.68,13,1,13,0.00
2013-2-13,41.7,34.9,25.9,31.1,26.4,22.9,92,72,54,29.93,29.68,5,0,5,0.00
2013-2-14,43.2,36.3,30.2,34.6,29.4,23.5,94,78,49,30.00,29.69,7,1,7,0.00
2013-2-15,48.7,40.2,33.6,38.6,35.8,31.8,94,85,67,30.02,29.91,7,0,7,0.00
2013-2-16,38.9,34.9,29.0,36.2,28.7,22.5,94,78,61,29.95,29.68,11,2,11,0.00
2013-2-17,32.7,26.0,17.8,25.2,12.0,4.8,88,56,38,29.92,29.59,26,5,26,0.00
2013-2-18,32.9,25.0,18.0,16.3,11.2,5.9,63,56,44,30.22,29.92,23,4,26,0.00
2013-2-19,46.7,41.8,29.7,44.0,36.9,16.1,96,84,57,30.22,29.65,11,1,11,0.28
2013-2-20,38.3,31.6,25.7,33.6,19.9,13.1,83,62,47,29.94,29.67,24,4,24,0.00
2013-2-21,34.6,28.2,24.5,20.1,16.5,13.6,70,61,51,30.27,29.92,22,4,22,0.00
2013-2-22,36.3,28.7,25.7,28.0,21.6,17.8,79,74,66,30.39,30.25,11,2,12,0.00
2013-2-23,41.1,37.8,34.8,39.8,36.1,29.6,97,94,81,30.28,29.79,8,2,9,0.23
2013-2-24,42.9,37.1,32.0,38.2,34.4,30.5,97,90,77,29.93,29.71,10,2,10,0.01
2013-2-25,46.4,37.3,30.5,32.7,29.2,26.1,94,73,51,30.23,29.93,6,1,7,0.00
2013-2-26,42.4,37.4,33.0,34.7,32.4,29.8,94,82,67,30.31,29.93,11,1,11,0.10
2013-2-27,47.7,42.6,36.3,46.8,41.3,34.7,97,95,86,29.94,29.49,15,2,15,1.42
2013-2-28,47.2,41.7,38.0,41.6,38.2,35.0,96,88,74,29.62,29.52,7,0,7,0.07
2013-3-1,44.9,39.1,34.9,36.3,33.2,30.0,94,80,61,29.75,29.57,9,1,9,0.00
2013-3-2,38.8,36.5,33.2,31.1,28.2,26.2,81,72,63,29.75,29.66,11,2,11,0.00
2013-3-3,37.3,33.0,29.7,27.3,24.3,21.9,78,70,57,29.71,29.63,13,3,14,0.00
2013-3-4,42.1,34.1,29.4,28.0,23.6,20.0,71,65,55,29.86,29.70,17,4,17,0.00
2013-3-5,47.9,38.4,31.0,31.6,27.3,23.0,77,65,48,30.02,29.86,10,1,10,0.00
2013-3-6,41.9,38.5,35.6,36.7,33.7,31.1,90,83,75,30.00,29.84,21,4,21,0.01
2013-3-7,37.9,34.5,32.7,33.1,31.6,30.2,96,89,77,30.03,29.88,22,4,22,0.31
2013-3-8,38.2,33.8,31.3,34.4,31.8,29.5,96,93,71,30.14,29.95,12,1,12,0.78
2013-3-9,52.1,39.2,29.8,32.6,28.5,25.6,93,68,36,30.33,30.14,11,1,11,0.00
2013-3-10,46.0,35.4,24.9,36.7,31.2,23.3,96,85,66,30.40,30.30,7,1,7,0.00
2013-3-11,54.2,45.1,37.0,46.8,41.1,34.3,94,86,70,30.33,30.10,7,0,7,0.00
2013-3-12,53.2,51.9,48.4,52.1,49.3,46.8,96,91,83,30.11,29.80,11,1,11,0.39
2013-3-13,51.4,43.7,34.2,41.2,32.5,26.1,93,66,45,29.87,29.77,10,2,11,0.00
2013-3-14,38.2,34.1,29.4,32.0,19.4,12.3,79,55,38,29.92,29.83,18,4,19,0.00
2013-3-15,43.4,36.6,29.8,31.8,21.1,11.9,73,53,39,29.95,29.71,18,2,18,0.00
2013-3-16,39.3,34.4,31.4,30.9,27.0,22.2,93,75,54,29.89,29.76,10,1,10,0.02
2013-3-17,37.4,33.0,28.1,30.7,21.7,12.1,92,65,43,30.30,29.89,10,1,10,0.00
2013-3-18,35.3,31.4,27.8,31.8,19.2,12.0,94,61,43,30.41,30.04,15,1,15,0.33
2013-3-19,39.9,36.1,32.7,37.5,34.5,30.6,96,94,89,30.04,29.65,13,2,13,0.53
2013-3-20,44.0,35.7,31.4,33.1,25.0,22.2,92,66,46,29.86,29.78,15,2,16,0.00
2013-3-21,36.1,31.7,27.6,29.5,27.4,21.4,94,84,68,29.83,29.63,8,1,8,0.05
2013-3-22,42.4,34.1,28.8,26.6,23.1,17.5,75,64,47,29.85,29.69,15,3,16,0.00
2013-3-23,46.2,38.9,32.9,28.9,25.6,22.8,70,59,45,29.86,29.76,17,3,18,0.00
2013-3-24,45.4,40.6,31.2,29.2,26.1,21.5,77,57,45,29.93,29.70,10,1,11,0.00
2013-3-25,41.4,37.9,34.2,34.3,31.8,28.7,89,78,70,29.73,29.43,16,2,16,0.00
2013-3-26,52.2,41.4,34.0,34.0,31.2,28.8,85,68,43,29.84,29.55,10,1,10,0.00
2013-3-27,53.9,41.4,31.4,32.7,29.7,27.1,86,65,39,29.93,29.83,12,1,12,0.00
2013-3-28,48.6,41.8,35.7,38.7,33.8,30.9,84,73,59,30.08,29.93,10,1,10,0.00
2013-3-29,57.2,45.8,38.0,35.1,32.7,28.9,81,62,37,30.12,30.02,13,2,13,0.00
2013-3-30,40.9,38.5,36.1,34.4,32.8,31.4,87,80,72,30.14,30.10,6,0,6,0.00
2013-3-31,55.0,47.7,30.7,45.2,38.9,29.2,96,74,44,30.13,29.64,9,1,10,0.09
2013-4-1,60.6,47.2,37.9,49.8,40.9,18.2,97,80,45,29.88,29.60,16,1,16,0.08
2013-4-2,41.5,35.8,33.0,20.9,19.2,13.9,60,51,35,29.99,29.88,18,3,18,0.00
2013-4-3,46.4,40.1,33.0,24.1,18.7,14.6,55,42,34,30.27,30.05,17,4,19,0.00
2013-4-4,50.8,39.3,30.7,33.4,24.4,16.3,77,56,38,30.38,30.09,10,1,14,0.00
2013-4-5,60.9,47.5,40.7,37.7,31.1,22.4,87,57,24,30.09,29.68,12,2,13,0.00
2013-4-6,49.7,40.8,35.1,30.7,19.7,8.7,75,45,20,30.32,29.95,15,2,16,0.00
2013-4-7,54.4,45.1,34.2,44.8,37.4,29.5,89,75,59,30.31,30.01,16,1,16,0.00
2013-4-8,71.0,54.8,41.8,47.9,44.3,40.2,95,71,35,30.08,29.98,8,1,8,0.00
2013-4-9,79.3,61.4,49.4,55.6,48.2,40.1,94,67,29,30.02,29.89,12,1,13,0.00
2013-4-10,70.4,56.7,48.2,54.8,49.0,44.3,96,76,55,30.03,29.79,15,1,15,0.28
2013-4-11,60.7,52.0,46.4,53.4,46.6,37.5,98,82,62,30.07,29.77,9,1,9,0.05
2013-4-12,47.0,42.6,40.0,40.6,38.3,33.5,96,85,64,30.06,29.71,17,2,17,0.57
2013-4-13,56.6,45.9,38.2,41.4,38.3,35.3,96,76,49,29.97,29.72,11,1,11,0.07
2013-4-14,54.9,49.3,45.9,43.3,40.9,34.5,87,74,51,30.05,29.95,14,1,14,0.00
2013-4-15,57.9,50.2,37.0,39.2,35.0,29.8,86,57,42,30.39,30.22,7,0,7,0.00
2013-4-16,61.4,54.5,41.4,53.2,49.2,37.8,93,82,69,30.38,30.13,10,1,10,0.00
2013-4-17,68.0,58.1,49.2,53.4,42.8,33.3,90,61,30,30.29,30.10,9,1,9,0.00
2013-4-18,61.4,52.5,41.6,53.7,43.8,35.8,94,74,42,30.36,30.11,13,1,14,0.00
2013-4-19,69.4,60.2,55.8,63.7,58.6,53.8,98,94,81,30.11,29.67,16,2,16,0.00
2013-4-20,60.7,53.9,46.1,60.0,39.7,29.4,98,61,41,30.26,29.67,13,2,13,0.26
2013-4-21,53.2,43.9,36.8,33.2,26.6,21.2,69,52,31,30.63,30.25,12,2,13,0.00
2013-4-22,52.8,43.9,32.3,38.2,34.4,30.0,93,70,46,30.67,30.50,14,2,14,0.00
2013-4-23,47.1,43.5,40.5,41.9,38.6,33.6,91,83,71,30.50,30.08,12,2,12,0.00
2013-4-24,65.2,50.7,43.0,52.3,45.0,40.3,96,82,57,30.09,29.86,11,2,11,0.00
2013-4-25,61.6,53.0,47.0,51.1,41.3,28.2,93,67,29,30.17,29.86,13,2,13,0.01
2013-4-26,65.5,56.9,38.2,43.8,36.1,30.2,93,48,29,30.40,30.26,7,1,7,0.00
2013-4-27,67.4,48.1,37.7,44.4,36.7,32.3,87,67,29,30.42,30.29,7,0,7,0.00
2013-4-28,66.8,53.8,41.0,47.4,40.9,30.1,97,66,32,30.32,30.22,7,0,7,0.00
2013-4-29,60.7,55.1,52.1,47.9,44.7,35.9,83,69,46,30.26,30.20,8,0,8,0.00
2013-4-30,65.5,56.1,43.8,48.9,37.1,25.9,86,53,25,30.33,30.21,9,0,9,0.00
2013-5-1,67.3,52.0,37.7,48.8,41.5,32.1,94,69,46,30.48,30.32,10,1,10,0.00
2013-5-2,69.2,56.1,41.4,49.2,43.8,39.5,94,65,47,30.47,30.32,8,0,8,0.00
2013-5-3,63.4,53.2,48.8,45.7,41.1,38.0,75,64,45,30.46,30.39,11,1,11,0.00
2013-5-4,66.2,51.4,40.6,48.6,42.7,38.2,97,73,47,30.37,30.25,4,0,9,0.01
2013-5-5,61.7,48.9,39.7,47.7,41.7,37.3,95,78,53,30.30,30.22,9,1,9,0.02
2013-5-6,65.1,56.2,42.5,53.4,48.0,40.8,95,75,60,30.27,30.15,8,1,8,0.00
2013-5-7,72.8,57.9,43.8,60.4,53.0,42.4,97,85,65,30.17,30.09,7,1,7,0.00
2013-5-8,66.8,59.2,53.5,64.4,57.6,52.7,97,94,88,30.11,29.99,14,0,14,0.27
2013-5-9,63.2,57.7,52.2,60.4,56.4,51.5,98,95,87,30.02,29.86,6,0,6,0.57
2013-5-10,78.8,62.2,49.7,61.5,55.3,48.9,99,81,48,29.99,29.90,6,0,7,0.01
2013-5-11,68.0,61.5,58.0,64.0,59.4,55.5,98,93,83,29.90,29.69,9,1,11,0.62
2013-5-12,70.5,60.3,52.2,60.5,52.2,33.0,99,77,35,29.90,29.63,13,1,13,0.03
2013-5-13,58.7,50.7,44.1,39.0,34.2,29.2,73,54,39,30.07,29.90,13,1,13,0.01
2013-5-14,59.1,50.5,42.1,42.8,36.1,29.1,80,60,34,30.10,30.01,8,1,8,0.00
2013-5-15,64.5,55.8,46.6,56.6,49.0,41.8,91,79,51,30.07,29.68,9,1,9,0.01
2013-5-16,80.0,62.4,51.3,59.2,53.6,45.6,98,76,35,29.80,29.69,6,0,8,0.02
2013-5-17,69.0,58.5,50.1,52.6,47.0,43.1,94,67,42,30.07,29.80,8,1,9,0.00
2013-5-18,69.6,56.6,45.4,55.5,51.8,43.7,96,85,48,30.31,30.20,4,0,7,0.04
2013-5-19,57.9,56.7,55.1,57.1,54.9,50.7,98,94,81,30.34,30.17,7,0,7,0.21
2013-5-20,76.7,63.8,57.8,69.0,61.8,57.2,99,94,74,30.17,29.96,5,0,7,0.07
2013-5-21,85.5,71.6,62.0,74.4,66.7,61.1,98,86,65,29.97,29.84,7,0,7,0.00
2013-5-22,75.7,64.8,55.3,70.2,61.9,54.5,98,91,76,29.94,29.85,8,1,8,0.02
2013-5-23,75.9,67.6,64.0,70.2,65.1,62.5,97,92,80,29.91,29.77,14,1,16,0.15
2013-5-24,67.5,58.4,47.4,65.9,57.1,45.4,99,95,87,29.88,29.67,14,1,14,0.66
2013-5-25,49.6,46.8,44.6,47.3,44.5,41.9,97,92,80,29.93,29.83,18,1,18,1.07
2013-5-26,64.8,53.6,43.8,49.0,43.8,41.2,94,71,48,30.18,29.89,16,1,16,0.00
2013-5-27,73.1,54.7,42.7,49.7,44.0,39.7,95,71,33,30.22,30.11,6,0,8,0.01
2013-5-28,71.5,56.5,46.6,57.4,51.8,45.5,98,86,49,30.21,30.13,5,0,5,0.44
2013-5-29,78.2,66.1,56.5,70.7,62.5,55.9,98,89,72,30.14,29.99,7,0,7,0.01
2013-5-30,90.5,76.5,65.1,73.5,66.3,63.1,95,73,48,30.11,30.04,5,0,5,0.01
2013-5-31,91.9,76.5,64.2,73.9,66.7,62.7,96,73,45,30.11,29.98,6,0,6,0.00
2013-6-1,86.0,75.4,67.3,73.7,67.7,63.7,91,78,63,30.01,29.91,7,0,7,0.01
2013-6-2,81.8,71.3,64.6,72.6,66.0,62.7,95,84,69,29.92,29.77,8,1,8,0.00
2013-6-3,74.5,68.7,65.5,70.8,66.6,59.2,98,93,78,29.85,29.78,6,0,6,0.46
2013-6-4,72.4,61.6,53.8,59.7,50.4,45.6,93,68,45,30.09,29.84,8,0,8,0.00
2013-6-5,72.7,60.8,49.3,56.7,51.1,45.9,95,73,45,30.20,30.08,8,1,8,0.01
2013-6-6,70.6,60.4,54.9,60.8,56.9,51.7,98,89,52,30.15,30.02,4,0,7,0.02
2013-6-7,61.9,59.9,57.6,61.3,58.9,56.5,98,97,92,30.02,29.64,11,1,12,2.59
2013-6-8,76.5,64.8,54.8,68.5,61.4,54.2,98,90,71,30.03,29.54,10,1,10,1.34
2013-6-9,78.2,67.6,56.5,65.7,60.5,55.9,99,80,56,30.16,30.03,5,0,5,0.00
2013-6-10,73.3,64.5,61.1,67.6,62.9,60.5,99,95,79,30.16,29.85,8,0,8,1.08
2013-6-11,80.3,70.6,63.0,71.8,67.1,59.2,99,89,69,29.86,29.58,6,0,7,0.71
2013-6-12,73.6,65.8,57.2,60.1,57.8,54.9,92,76,60,29.84,29.66,10,1,13,0.01
2013-6-13,63.6,60.3,54.2,60.2,58.1,53.1,97,92,85,29.82,29.49,16,1,16,0.23
2013-6-14,69.5,59.2,53.0,60.2,55.1,51.8,97,87,66,29.85,29.49,15,2,15,0.44
2013-6-15,78.8,69.5,57.9,61.1,57.3,51.4,96,68,41,29.98,29.85,6,0,6,0.02
2013-6-16,79.4,68.0,55.2,68.3,61.5,54.1,98,81,49,29.97,29.75,5,0,6,0.02
2013-6-17,84.2,70.9,62.9,71.4,65.9,61.8,97,85,59,29.93,29.82,5,0,5,0.09
2013-6-18,77.9,67.4,60.1,72.7,65.5,59.5,99,94,78,29.89,29.81,9,0,9,0.36
2013-6-19,74.8,65.2,58.0,62.1,55.9,49.3,98,74,42,30.16,29.86,9,1,9,0.02
2013-6-20,78.5,65.8,52.7,66.8,56.8,51.7,98,75,51,30.26,30.16,8,0,8,0.01
2013-6-21,80.8,69.1,59.1,68.0,58.2,55.0,93,70,51,30.29,30.23,7,0,7,0.01
2013-6-22,82.5,69.7,60.0,70.2,61.1,56.8,94,75,49,30.26,30.13,7,0,7,0.01
2013-6-23,85.2,74.5,63.9,75.4,67.4,59.5,95,79,61,30.18,30.06,7,0,8,0.01
2013-6-24,89.8,78.2,68.8,78.1,71.5,64.8,98,81,54,30.06,29.92,6,0,9,0.02
2013-6-25,89.9,78.4,66.2,78.6,70.2,64.4,95,77,57,29.98,29.77,6,0,6,0.00
2013-6-26,84.3,77.7,73.4,74.9,70.4,67.9,88,79,65,29.82,29.74,5,0,6,0.01
2013-6-27,81.8,74.1,69.8,75.2,70.9,68.6,97,90,77,29.81,29.59,8,0,8,0.08
2013-6-28,83.8,76.3,72.2,75.6,72.1,70.2,97,87,72,29.59,29.48,7,0,8,0.01
2013-6-29,81.9,74.0,68.2,75.3,70.3,66.8,98,89,73,29.70,29.48,7,0,7,0.02
2013-6-30,81.2,73.3,69.0,76.6,71.5,68.1,98,94,82,29.92,29.70,8,0,8,0.03
2013-7-1,80.8,74.0,71.9,77.2,72.8,70.6,99,96,86,30.06,29.90,8,0,8,0.63
2013-7-2,81.3,75.1,71.9,77.3,72.9,70.6,97,93,82,30.18,30.06,7,0,7,0.02
2013-7-3,85.9,76.6,70.6,78.4,73.0,69.4,96,89,74,30.24,30.17,6,0,6,0.02
2013-7-4,87.7,81.4,72.4,81.0,75.3,71.7,98,82,72,30.24,30.15,7,0,7,0.06
2013-7-5,89.9,79.7,73.0,81.4,74.2,71.4,96,84,68,30.20,30.07,5,0,5,0.00
2013-7-6,90.1,81.8,74.0,78.9,74.4,71.5,94,79,59,30.12,30.00,4,0,7,0.01
2013-7-7,91.3,82.4,74.5,79.6,74.9,72.4,94,79,56,30.04,29.91,5,0,5,0.01
2013-7-8,88.3,79.0,72.1,76.6,70.5,66.4,88,76,56,30.02,29.94,7,0,7,0.01
2013-7-9,84.6,77.5,70.6,76.7,71.6,67.2,91,82,69,30.06,29.98,4,0,4,0.00
2013-7-10,86.5,79.6,73.6,79.2,74.9,70.7,96,86,73,30.01,29.79,8,0,8,0.14
2013-7-11,79.5,76.0,74.8,76.9,74.0,72.6,98,94,84,29.85,29.79,3,0,3,0.19
2013-7-12,76.0,71.8,67.5,71.1,68.7,66.0,97,90,82,30.11,29.90,8,1,8,0.40
2013-7-13,77.8,72.7,67.7,76.6,72.0,66.8,99,98,94,30.27,30.11,5,0,5,0.37
2013-7-14,89.0,78.9,71.9,79.8,74.9,71.6,100,88,64,30.31,30.21,3,0,5,0.03
2013-7-15,90.4,81.2,73.5,80.5,74.7,72.0,96,81,64,30.22,30.11,4,0,5,0.01
2013-7-16,89.4,81.9,72.0,76.6,72.7,70.7,97,75,57,30.17,30.10,4,0,4,0.00
2013-7-17,91.1,80.4,71.0,77.2,72.6,70.3,98,79,52,30.17,30.04,5,0,5,0.02
2013-7-18,93.2,83.7,75.0,81.3,75.5,71.1,92,77,54,30.05,29.93,4,0,4,0.01
2013-7-19,91.5,83.1,75.2,84.6,77.7,72.9,98,84,68,29.95,29.77,14,0,14,0.98
2013-7-20,90.5,82.4,77.2,81.1,74.9,68.2,94,79,61,29.83,29.69,5,0,7,0.01
2013-7-21,82.3,76.3,70.2,72.6,70.0,65.2,96,81,60,29.95,29.81,6,0,6,0.03
2013-7-22,80.5,74.1,69.9,76.6,72.5,68.8,98,95,85,29.95,29.80,6,0,6,0.03
2013-7-23,85.6,76.7,69.3,79.8,74.2,68.7,99,93,75,29.80,29.53,8,0,8,1.35
2013-7-24,81.3,74.2,68.9,75.6,70.1,59.9,99,88,70,29.92,29.59,7,0,7,0.00
2013-7-25,68.9,63.1,61.6,61.2,58.4,54.0,96,85,73,30.05,29.91,11,2,11,0.18
2013-7-26,73.7,66.8,61.3,68.2,64.0,60.2,97,91,72,30.04,29.95,7,0,8,0.24
2013-7-27,81.0,72.1,66.0,71.7,66.9,62.8,97,85,58,30.05,29.97,5,0,5,0.00
2013-7-28,71.5,66.5,64.4,70.0,65.9,63.8,99,98,95,30.00,29.94,1,0,1,0.02
2013-7-29,83.5,75.9,65.7,75.2,68.9,59.4,99,80,59,30.07,29.94,5,0,5,0.20
2013-7-30,78.2,69.4,59.8,65.8,61.7,58.7,97,78,55,30.15,30.07,6,0,6,0.00
2013-7-31,79.8,69.9,60.2,66.7,62.9,59.1,99,80,51,30.14,30.03,4,0,4,0.02
2013-8-1,75.5,69.7,66.3,70.1,67.1,64.1,99,92,77,30.04,29.82,4,0,5,0.20
2013-8-2,81.5,73.0,67.6,70.0,67.6,64.2,99,84,57,29.90,29.77,5,0,5,0.03
2013-8-3,77.4,70.3,67.3,72.2,65.9,60.8,95,86,73,29.90,29.82,5,0,5,0.05
2013-8-4,77.9,69.1,60.9,66.2,62.4,57.8,99,81,58,29.93,29.82,12,0,12,0.02
2013-8-5,73.4,65.9,59.7,59.1,55.4,49.7,87,70,49,30.04,29.93,8,0,8,0.01
2013-8-6,75.7,66.4,57.1,65.6,59.2,56.3,98,79,61,30.13,30.03,4,0,4,0.00
2013-8-7,77.3,70.9,58.5,70.0,64.8,57.3,97,81,69,30.15,30.08,5,0,5,0.02
2013-8-8,80.0,74.5,68.7,75.4,71.6,65.8,95,91,81,30.08,30.01,6,0,6,0.02
2013-8-9,81.4,75.6,73.5,77.9,74.4,71.1,98,96,86,30.02,29.79,13,0,13,0.70
2013-8-10,79.8,74.0,67.6,74.1,70.8,60.3,98,90,63,30.03,29.80,3,0,6,0.01
2013-8-11,76.6,68.6,56.6,64.7,59.3,53.6,94,73,50,30.11,30.02,6,0,6,0.03
2013-8-12,76.9,70.1,67.4,71.7,67.9,64.3,98,93,77,30.03,29.92,3,0,3,0.07
2013-8-13,72.6,69.7,66.3,72.3,68.7,65.7,99,97,87,29.93,29.69,5,0,5,0.42
2013-8-14,69.3,68.5,67.9,68.7,67.6,67.0,98,97,97,29.73,29.71,0,0,1,0.01
2013-8-15,65.3,65.2,64.9,59.7,59.1,58.9,82,81,80,30.12,30.12,3,0,3,0.01
2013-8-16,78.0,70.9,55.8,64.8,58.8,52.5,98,67,44,30.20,30.11,4,0,4,0.00
2013-8-17,79.0,70.9,56.8,65.0,60.2,54.0,98,71,43,30.27,30.20,6,0,6,0.01
2013-8-18,74.2,66.1,59.8,66.6,62.4,58.4,97,88,67,30.26,30.12,5,0,5,0.03
2013-8-19,75.3,68.1,58.2,67.9,63.3,56.8,96,85,71,30.12,30.01,4,0,4,0.02
2013-8-20,83.1,72.6,63.3,69.6,65.5,61.4,98,80,50,30.11,30.02,3,0,3,0.00
2013-8-21,84.9,74.0,63.5,70.9,66.6,61.3,99,80,47,30.16,30.04,4,0,4,0.02
2013-8-22,80.3,72.8,69.4,77.3,71.1,68.3,99,94,86,30.06,29.85,4,0,4,1.37
2013-8-23,77.5,71.6,63.5,70.0,65.3,60.2,98,82,57,30.09,29.85,8,0,8,0.00
2013-8-24,75.8,67.0,58.5,62.1,57.8,53.3,97,74,47,30.34,30.09,9,1,9,0.01
2013-8-25,79.1,67.2,55.3,65.3,58.5,53.7,99,76,43,30.38,30.21,5,0,5,0.02
2013-8-26,78.3,71.2,65.8,70.6,65.0,58.4,98,81,68,30.22,29.90,4,0,4,0.34
2013-8-27,81.0,73.1,69.2,74.5,70.4,68.4,99,92,74,29.90,29.79,8,0,8,0.36
2013-8-28,84.0,73.7,65.4,76.2,70.0,64.8,99,89,70,29.89,29.83,6,0,6,0.00
2013-8-29,66.3,66.0,65.6,64.4,63.9,63.3,94,93,91,30.03,30.01,0,0,1,0.02
2013-8-30,79.8,70.9,64.7,73.6,67.3,62.5,94,89,74,30.03,29.85,4,0,4,0.00
2013-8-31,82.5,75.2,70.1,76.4,71.8,68.6,96,89,78,29.86,29.79,6,0,6,0.01
2013-9-1,82.2,75.8,72.5,77.2,73.4,71.6,98,92,80,29.85,29.80,7,0,7,0.01
2013-9-2,77.3,74.6,71.0,75.8,73.6,70.4,99,96,92,29.81,29.69,3,0,3,0.03
2013-9-3,75.5,71.7,69.2,73.9,71.0,68.8,99,98,89,29.77,29.69,2,0,2,0.16
2013-9-4,77.6,71.6,65.0,72.8,61.1,56.2,91,70,49,29.97,29.75,5,0,5,0.01
2013-9-5,73.7,67.1,62.4,65.6,59.6,45.6,92,78,50,30.12,29.90,9,0,9,0.01
2013-9-6,68.0,59.7,52.5,52.9,49.2,44.8,90,69,48,30.24,30.11,9,1,9,0.00
2013-9-7,76.0,63.4,50.9,61.4,54.3,49.0,95,74,46,30.12,29.89,5,0,5,0.01
2013-9-8,78.5,69.2,62.4,67.9,59.4,48.2,91,72,46,30.07,29.79,12,1,12,0.01
2013-9-9,68.4,60.5,47.8,57.1,51.4,45.9,95,73,57,30.24,30.07,5,0,6,0.01
2013-9-10,79.5,73.8,61.6,74.1,70.5,57.0,96,89,80,30.16,30.05,8,0,8,0.05
2013-9-11,73.8,73.2,72.8,71.8,71.3,70.8,94,93,93,30.09,30.06,2,0,4,0.01
2013-9-12,83.7,77.3,69.1,76.1,72.7,67.7,97,86,74,29.99,29.69,9,0,9,0.17
2013-9-13,73.3,64.5,59.7,68.6,58.6,52.8,99,81,73,29.81,29.61,7,1,11,0.05
2013-9-14,66.0,59.7,54.1,56.2,52.0,49.2,85,76,61,30.10,29.81,9,0,9,0.01
2013-9-15,67.0,57.7,46.9,57.8,51.2,45.8,98,80,51,30.20,30.08,5,0,5,0.02
2013-9-16,63.9,60.1,57.2,60.8,55.7,44.2,95,86,63,30.23,30.03,10,0,10,0.01
2013-9-17,59.9,52.7,43.9,47.3,42.6,39.2,95,70,50,30.42,30.23,12,2,13,0.00
2013-9-18,67.6,54.4,42.7,53.7,47.3,41.6,98,80,50,30.34,30.18,5,0,5,0.01
2013-9-19,72.2,58.7,48.6,57.0,52.5,47.8,98,82,50,30.19,30.08,5,0,5,0.01
2013-9-20,77.2,66.3,50.8,64.6,59.0,50.0,99,79,55,30.09,30.00,4,0,4,0.00
2013-9-21,75.5,65.8,53.0,68.8,62.8,52.5,99,90,75,30.02,29.68,10,0,10,0.02
2013-9-22,70.8,63.7,54.9,67.9,56.5,44.3,98,79,58,29.89,29.64,13,1,13,0.94
2013-9-23,62.7,55.1,50.5,49.0,44.4,42.8,79,68,53,29.98,29.88,11,1,12,0.00
2013-9-24,66.6,57.3,47.9,54.1,49.8,42.7,96,77,56,30.03,29.85,9,0,9,0.00
2013-9-25,68.0,55.4,45.8,55.4,50.0,44.9,98,84,54,29.94,29.86,4,0,4,0.01
2013-9-26,66.5,58.3,49.5,57.9,54.2,48.7,98,87,64,30.09,29.92,6,0,6,0.01
2013-9-27,63.7,55.6,48.1,57.5,52.1,47.3,99,89,71,30.26,30.09,9,0,9,0.00
2013-9-28,70.0,60.0,50.8,58.8,54.8,49.9,98,84,58,30.32,30.23,7,0,7,0.00
2013-9-29,66.5,60.2,47.3,57.4,47.7,39.3,99,65,40,30.23,30.09,7,0,7,0.01
2013-9-30,68.1,60.6,46.5,57.9,55.2,45.7,99,83,58,30.08,29.97,5,0,5,0.00
2013-10-1,74.2,58.8,50.3,61.4,55.7,49.5,99,90,58,29.99,29.91,3,0,5,0.01
2013-10-2,78.1,63.6,55.0,65.7,60.0,54.3,99,89,62,29.99,29.90,6,0,6,0.00
2013-10-3,72.0,61.9,52.1,61.1,56.2,51.3,99,83,53,30.11,29.99,5,0,5,0.01
2013-10-4,82.0,68.9,59.9,71.4,64.5,57.7,98,87,66,30.06,29.96,5,0,5,0.00
2013-10-5,71.7,65.7,63.0,66.2,63.2,61.3,98,92,80,30.09,30.01,5,0,5,0.00
2013-10-6,65.9,64.1,63.4,65.6,63.5,62.5,99,98,95,30.11,30.04,3,0,3,0.02
2013-10-7,76.9,69.1,61.7,71.7,66.6,55.4,99,92,79,30.04,29.81,14,0,14,0.10
2013-10-8,64.7,59.5,55.8,55.5,48.6,44.6,81,68,50,30.31,29.95,11,1,11,0.01
2013-10-9,61.9,57.5,54.0,52.3,49.0,40.6,85,74,53,30.40,30.28,13,1,13,0.00
2013-10-10,64.1,59.8,54.7,59.2,55.6,50.3,92,86,82,30.29,30.08,9,1,9,0.02
2013-10-11,67.5,62.6,58.9,62.2,58.3,52.6,92,86,71,30.09,30.01,9,1,9,0.01
2013-10-12,69.3,62.2,58.7,57.7,51.9,43.7,85,70,46,30.29,30.07,12,1,12,0.00
2013-10-13,60.5,56.6,50.5,53.8,51.7,46.7,90,84,75,30.38,30.28,11,1,11,0.00
2013-10-14,61.5,52.6,46.0,52.8,48.0,43.5,96,85,65,30.37,30.25,7,0,7,0.00
2013-10-15,65.8,53.9,44.2,57.1,49.4,42.6,98,85,68,30.26,30.11,7,0,8,0.00
2013-10-16,64.8,58.8,48.3,59.6,56.2,46.7,98,91,80,30.11,29.91,6,0,6,0.00
2013-10-17,70.2,63.8,60.3,64.6,61.1,58.9,97,91,78,29.92,29.70,5,0,5,0.01
2013-10-18,66.1,61.5,53.7,62.7,52.7,46.9,96,73,54,29.96,29.65,15,1,15,0.02
2013-10-19,64.3,51.7,43.9,56.2,46.2,41.8,97,83,53,29.99,29.74,5,0,6,0.01
2013-10-20,61.7,56.9,47.1,57.4,45.2,39.6,94,66,49,30.05,29.71,8,1,14,0.01
2013-10-21,65.9,52.3,40.6,47.3,43.3,38.4,96,74,45,30.15,29.99,5,0,6,0.00
2013-10-22,69.5,55.4,45.2,54.2,48.2,43.0,97,78,53,29.99,29.73,8,0,9,0.00
2013-10-23,51.5,48.7,44.6,46.9,40.4,37.5,87,73,61,29.81,29.60,9,0,9,0.02
2013-10-24,54.4,47.8,43.9,40.1,35.5,31.0,81,63,47,29.97,29.71,10,1,10,0.00
2013-10-25,51.8,46.9,43.3,37.3,35.1,32.2,76,64,51,30.20,29.97,7,1,12,0.00
2013-10-26,55.3,47.2,37.8,39.3,35.8,31.6,87,66,45,30.20,29.90,9,0,9,0.01
2013-10-27,57.4,50.8,45.7,40.8,37.2,33.9,78,60,46,30.10,29.84,12,0,12,0.01
2013-10-28,60.4,50.1,38.2,40.9,37.5,34.3,88,63,44,30.31,30.10,9,0,9,0.00
2013-10-29,50.9,45.3,35.7,39.2,35.3,32.2,89,68,52,30.42,30.31,7,0,8,0.00
2013-10-30,59.2,48.3,36.2,51.6,43.7,33.3,94,84,71,30.35,30.18,3,0,3,0.00
2013-10-31,65.6,60.2,46.0,61.3,56.9,44.2,98,89,79,30.23,29.83,6,0,7,0.01
2013-11-1,66.2,63.2,59.7,63.1,60.6,57.2,96,91,76,29.83,29.55,12,1,14,0.09
2013-11-2,65.0,57.1,49.4,57.4,50.4,44.8,95,79,57,29.75,29.60,6,0,6,0.01
2013-11-3,54.9,46.6,37.6,45.9,37.1,22.5,87,70,54,30.43,29.75,13,1,14,0.01
2013-11-4,43.2,37.0,30.7,26.8,24.7,21.8,84,62,46,30.66,30.43,13,1,13,0.00
2013-11-5,55.4,43.5,30.9,41.0,36.0,26.5,91,75,56,30.67,30.50,5,0,5,0.00
2013-11-6,61.7,50.5,37.9,55.4,45.8,35.5,97,85,58,30.51,30.06,7,0,7,0.00
2013-11-7,63.6,56.2,44.3,60.8,52.8,32.0,97,89,60,30.06,29.73,12,1,12,0.23
2013-11-8,50.7,44.7,42.0,35.5,31.8,27.9,73,61,48,30.18,29.89,17,2,17,0.00
2013-11-9,48.2,44.1,38.4,37.8,32.1,28.6,74,63,50,30.27,30.01,9,1,12,0.00
2013-11-10,61.7,50.3,44.0,42.1,37.8,32.2,75,63,42,30.01,29.77,17,1,20,0.01
2013-11-11,52.9,48.3,43.8,36.2,33.0,29.7,61,55,45,30.17,29.95,15,1,15,0.00
2013-11-12,50.5,38.1,31.2,38.7,29.0,20.6,93,70,57,30.26,29.91,14,1,14,0.14
2013-11-13,37.6,33.0,28.6,22.9,19.7,16.5,70,58,44,30.34,30.25,12,1,12,0.00
2013-11-14,53.1,43.2,32.4,26.5,22.6,19.7,66,45,28,30.26,30.13,10,0,10,0.00
2013-11-15,57.9,46.5,35.2,42.4,34.2,25.6,84,63,40,30.24,30.15,4,0,4,0.00
2013-11-16,59.8,48.8,40.1,47.9,41.9,34.6,92,77,54,30.32,30.22,5,0,5,0.00
2013-11-17,61.6,58.1,39.7,60.7,57.3,37.6,98,97,92,30.27,29.80,7,0,7,0.05
2013-11-18,64.2,58.8,51.2,61.0,46.9,33.8,99,68,40,29.79,29.59,10,1,10,0.47
2013-11-19,51.1,44.6,35.0,34.1,29.4,22.5,64,55,48,30.33,29.74,18,3,18,0.00
2013-11-20,41.7,33.9,25.7,23.3,21.0,18.2,79,60,39,30.61,30.33,8,1,14,0.00
2013-11-21,51.6,38.4,24.8,40.8,31.4,20.1,94,77,56,30.62,30.38,6,0,7,0.00
2013-11-22,53.7,51.1,45.6,52.1,48.4,41.0,96,90,82,30.38,29.87,5,0,5,0.06
2013-11-23,52.8,43.3,31.2,50.0,31.7,15.4,91,64,45,30.00,29.86,23,3,23,0.01
2013-11-24,31.1,26.7,24.0,18.9,9.4,1.5,64,48,30,30.33,29.94,23,5,28,0.00
2013-11-25,34.4,29.0,23.4,20.0,15.5,10.1,65,57,44,30.47,30.33,12,1,12,0.00
2013-11-26,51.7,38.9,33.6,51.2,31.3,18.8,98,76,48,30.34,29.82,8,0,8,0.24
2013-11-27,62.2,50.0,35.8,61.6,48.4,27.4,98,94,71,29.82,29.28,19,3,19,1.78
2013-11-28,35.8,32.3,30.2,27.7,19.0,13.5,72,58,48,30.47,29.67,21,3,21,0.00
2013-11-29,39.1,33.1,29.8,25.7,21.1,17.2,72,61,52,30.72,30.46,9,1,9,0.00
2013-11-30,37.2,31.5,26.1,28.9,20.9,15.2,80,65,43,30.76,30.37,7,0,7,0.00
2013-12-1,46.7,41.2,34.4,43.3,38.7,28.9,96,91,80,30.37,30.00,5,0,5,0.10
2013-12-2,44.4,38.2,32.5,41.2,36.2,31.0,97,93,87,30.00,29.88,6,0,6,0.00
2013-12-3,49.4,38.7,31.9,40.5,35.1,29.8,97,88,67,30.00,29.86,7,0,7,0.00
2013-12-4,48.2,39.9,30.4,42.9,36.0,28.6,97,86,70,30.15,29.99,5,0,5,0.00
2013-12-5,60.0,54.1,44.5,57.9,52.6,42.6,98,95,88,30.14,29.94,4,0,4,0.01
2013-12-6,57.7,46.9,36.9,57.4,45.4,35.0,99,95,76,30.15,29.88,12,1,12,0.40
2013-12-7,39.7,36.5,32.5,35.7,30.8,20.9,95,80,62,30.50,30.06,10,2,10,0.22
2013-12-8,33.4,31.5,29.0,30.5,23.4,20.1,93,72,60,30.59,30.39,8,0,8,0.02
2013-12-9,42.9,37.5,32.2,42.0,36.5,30.5,97,96,93,30.39,29.92,9,1,9,0.11
2013-12-10,37.5,33.8,30.9,34.7,30.6,19.9,96,88,65,30.10,29.80,17,1,17,0.17
2013-12-11,31.0,29.9,28.6,20.5,19.1,18.2,66,64,62,30.18,30.10,15,2,17,0.00
2013-12-12,30.0,24.7,22.3,20.4,11.7,8.0,68,57,47,30.33,30.14,8,1,12,0.00
2013-12-13,24.9,23.6,22.6,12.1,10.2,9.0,59,56,54,30.14,30.11,13,1,13,0.00
2013-12-14,36.9,26.9,23.1,36.1,23.1,18.3,97,86,68,30.51,29.89,3,2,11,0.37
2013-12-15,41.5,35.7,32.6,40.7,30.3,23.5,97,81,69,29.84,29.44,9,2,21,1.16
2013-12-16,32.6,29.0,23.0,24.2,16.2,11.0,72,58,50,30.22,29.81,16,2,17,0.00
2013-12-17,33.6,25.6,20.6,32.3,21.9,13.2,95,86,68,30.23,29.91,9,1,9,0.25
2013-12-18,35.4,29.4,23.5,28.5,24.0,21.3,92,80,67,30.16,29.89,10,1,11,0.00
2013-12-19,47.2,37.4,27.8,33.5,27.6,21.6,82,68,49,30.17,30.01,8,0,8,0.00
2013-12-20,51.9,43.3,34.4,43.9,36.5,29.8,94,77,58,30.11,29.97,5,0,5,0.00
2013-12-21,59.6,51.4,45.5,52.8,48.3,43.6,96,89,74,30.01,29.90,7,0,7,0.00
2013-12-22,61.4,58.9,54.5,58.5,56.2,52.2,96,91,80,29.97,29.81,11,1,11,0.00
2013-12-23,58.4,52.8,40.3,56.7,51.5,36.1,98,95,85,30.13,29.86,11,1,12,0.34
2013-12-24,40.2,34.9,26.6,36.1,26.4,20.0,91,72,55,30.30,30.06,14,2,14,0.06
2013-12-25,26.5,23.5,19.5,20.0,12.9,10.2,76,64,53,30.52,30.29,12,2,13,0.00
2013-12-26,36.4,30.7,24.2,30.4,25.3,16.3,89,80,70,30.45,30.14,9,0,9,0.00
2013-12-27,41.4,34.2,29.8,27.6,24.4,21.2,86,68,51,30.35,30.25,13,1,13,0.00
2013-12-28,53.9,42.7,33.0,34.8,30.2,25.4,83,63,42,30.28,30.05,9,0,9,0.00
2013-12-29,47.7,43.3,40.4,46.8,38.3,30.8,97,83,65,30.07,29.35,12,1,12,1.33
2013-12-30,43.0,35.5,22.7,39.7,30.1,13.4,95,81,59,30.18,29.65,11,1,12,0.00
2013-12-31,31.9,25.8,19.7,23.3,15.9,11.9,74,66,51,30.26,30.05,16,1,18,0.00
2014-1-1,31.6,27.7,22.9,23.1,16.9,11.8,75,64,54,30.41,30.25,15,1,15,0.00
2014-1-2,31.8,26.6,16.6,26.0,23.5,14.7,93,88,71,30.27,29.66,14,3,14,0.15